Time;durP1;ratioP1;P1;durP2;ratioP2;P2;SDS_P1;SDS_P2;PMS_P1;PMS_P2;Temp;Humidity;BMP_temperature;BMP_pressure;BME280_temperature;BME280_humidity;BME280_pressure;Samples;Min_cycle;Max_cycle;Signal;HPM_P1;HPM_P2
2023/01/30 00:01:10;;;;;;;47.22;31.98;;;;;;;2.22;100.00;101755.50;10487695;28;20041;-75
2023/01/30 00:06:11;;;;;;;47.15;28.13;;;;;;;2.33;100.00;101749.69;10487853;28;20064;-76
2023/01/30 00:11:12;;;;;;;54.90;32.63;;;;;;;2.35;100.00;101736.94;10485469;28;20070;-75
2023/01/30 00:16:12;;;;;;;43.50;27.77;;;;;;;2.41;100.00;101727.19;10495692;28;20112;-75
2023/01/30 00:21:13;;;;;;;45.47;28.48;;;;;;;2.43;100.00;101722.13;10487784;28;20086;-75
2023/01/30 00:26:14;;;;;;;43.72;29.88;;;;;;;2.52;100.00;101712.66;10469392;28;20047;-76
2023/01/30 00:31:14;;;;;;;49.95;29.00;;;;;;;2.51;100.00;101704.78;10486753;28;20043;-75
2023/01/30 00:36:15;;;;;;;51.28;29.83;;;;;;;2.51;100.00;101684.13;10486154;28;20083;-75
2023/01/30 00:41:17;;;;;;;56.92;30.35;;;;;;;2.58;100.00;101669.31;10469133;28;20051;-75
2023/01/30 00:51:55;;;;;;;43.22;29.15;;;;;;;2.67;100.00;101658.94;10483002;28;20041;-76
2023/01/30 00:56:56;;;;;;;41.80;28.17;;;;;;;2.65;100.00;101660.47;10486124;28;20056;-75
2023/01/30 01:01:56;;;;;;;37.63;26.05;;;;;;;2.65;100.00;101650.13;10486053;28;20044;-76
2023/01/30 01:06:57;;;;;;;42.38;26.15;;;;;;;2.67;100.00;101646.00;10485269;28;20033;-75
2023/01/30 01:11:57;;;;;;;41.20;26.48;;;;;;;2.69;100.00;101641.88;10441965;28;20110;-75
2023/01/30 01:16:58;;;;;;;47.75;25.73;;;;;;;2.70;100.00;101654.03;10445496;28;20518;-76
2023/01/30 01:21:58;;;;;;;45.55;26.02;;;;;;;2.71;100.00;101645.50;10448958;27;20067;-76
2023/01/30 01:26:59;;;;;;;43.92;28.73;;;;;;;2.70;100.00;101671.22;10466662;28;20036;-77
2023/01/30 01:31:59;;;;;;;45.17;26.98;;;;;;;2.78;100.00;101658.22;10486361;28;20043;-76
2023/01/30 01:37:00;;;;;;;48.33;30.20;;;;;;;2.79;100.00;101653.97;10483735;28;20063;-75
2023/01/30 01:42:00;;;;;;;41.75;26.05;;;;;;;2.75;100.00;101660.53;10463129;28;20045;-76
2023/01/30 01:47:01;;;;;;;43.08;27.80;;;;;;;2.77;100.00;101655.50;10441024;28;20061;-75
2023/01/30 01:52:07;;;;;;;39.58;27.38;;;;;;;2.76;100.00;101649.44;10419838;28;20488;-75
2023/01/30 01:57:10;;;;;;;47.22;33.30;;;;;;;2.78;100.00;101649.56;10438144;28;20095;-76
2023/01/30 02:02:11;;;;;;;46.83;29.92;;;;;;;2.73;100.00;101637.88;10423158;28;20110;-75
2023/01/30 02:07:12;;;;;;;50.63;31.35;;;;;;;2.72;100.00;101633.47;10435258;28;20040;-75
2023/01/30 02:12:13;;;;;;;46.90;31.80;;;;;;;2.68;100.00;101618.47;10436663;28;20400;-75
2023/01/30 02:17:14;;;;;;;46.00;30.80;;;;;;;2.69;100.00;101600.53;10439358;28;20044;-75
2023/01/30 02:22:51;;;;;;;61.13;33.28;;;;;;;2.71;100.00;101577.38;10438849;28;20422;-75
2023/01/30 02:28:20;;;;;;;51.42;29.70;;;;;;;2.77;100.00;101585.69;10506656;28;20044;-74
2023/01/30 02:33:30;;;;;;;47.55;29.55;;;;;;;2.75;100.00;101556.22;10445446;28;20456;-74
2023/01/30 02:38:34;;;;;;;47.80;28.92;;;;;;;2.77;100.00;101562.41;10449589;28;20124;-74
2023/01/30 02:43:45;;;;;;;50.20;30.77;;;;;;;2.83;100.00;101567.25;10425077;28;20048;-74
2023/01/30 02:48:48;;;;;;;38.58;26.58;;;;;;;2.94;100.00;101551.03;10437108;28;20083;-74
2023/01/30 02:53:48;;;;;;;43.17;29.17;;;;;;;3.01;100.00;101549.88;10421835;28;20040;-74
2023/01/30 02:58:53;;;;;;;51.35;30.05;;;;;;;3.10;100.00;101549.81;10404639;28;20051;-74
2023/01/30 03:04:30;;;;;;;39.15;24.85;;;;;;;3.15;100.00;101520.06;10448723;28;20059;-74
2023/01/30 03:10:00;;;;;;;50.55;28.45;;;;;;;3.25;100.00;101526.94;10459010;28;20041;-74
2023/01/30 03:15:05;;;;;;;43.38;29.70;;;;;;;3.23;100.00;101525.13;10462343;28;20040;-74
2023/01/30 03:20:06;;;;;;;45.63;27.27;;;;;;;3.26;100.00;101515.81;10481993;28;20040;-74
2023/01/30 03:25:07;;;;;;;42.83;26.40;;;;;;;3.30;100.00;101512.72;10487913;28;20036;-74
2023/01/30 03:30:08;;;;;;;38.90;26.98;;;;;;;3.33;100.00;101498.41;10481515;28;20489;-74
2023/01/30 03:35:08;;;;;;;40.90;24.77;;;;;;;3.31;100.00;101509.38;10478600;28;20544;-74
2023/01/30 03:40:11;;;;;;;40.75;25.75;;;;;;;3.32;100.00;101526.72;10523886;28;20036;-74
2023/01/30 03:45:11;;;;;;;;;;;;;;;3.33;100.00;101505.25;10469647;28;20044;-74
2023/01/30 03:50:12;;;;;;;37.15;25.38;;;;;;;3.30;100.00;101507.56;10517390;28;20384;-75
2023/01/30 03:55:12;;;;;;;42.50;27.83;;;;;;;3.28;100.00;101493.59;10485496;28;20040;-74
2023/01/30 04:00:13;;;;;;;42.17;27.70;;;;;;;3.23;100.00;101486.31;10484019;28;20503;-74
2023/01/30 04:05:14;;;;;;;51.47;26.85;;;;;;;3.25;100.00;101485.56;10483592;28;20434;-74
2023/01/30 04:10:17;;;;;;;41.72;26.85;;;;;;;3.21;100.00;101484.41;10484318;28;20037;-74
2023/01/30 04:15:17;;;;;;;42.75;28.45;;;;;;;3.20;100.00;101478.31;10484912;28;20106;-74
2023/01/30 04:20:19;;;;;;;51.90;31.67;;;;;;;3.18;100.00;101489.31;10484313;28;20118;-74
2023/01/30 04:25:19;;;;;;;48.58;31.92;;;;;;;3.17;100.00;101477.16;10467548;27;20032;-73
2023/01/30 04:30:20;;;;;;;50.03;31.75;;;;;;;3.22;100.00;101474.16;10452208;28;20068;-74
2023/01/30 04:35:20;;;;;;;47.63;29.63;;;;;;;3.19;100.00;101476.50;10440113;28;20051;-74
2023/01/30 04:40:21;;;;;;;51.65;29.88;;;;;;;3.16;100.00;101464.97;10446529;28;20104;-75
2023/01/30 04:45:21;;;;;;;48.42;28.98;;;;;;;3.14;100.00;101474.28;10441673;28;20078;-74
2023/01/30 04:50:22;;;;;;;55.38;32.22;;;;;;;3.16;100.00;101465.88;10450373;28;20072;-74
2023/01/30 04:55:22;;;;;;;48.35;29.80;;;;;;;3.20;100.00;101472.25;10458166;28;20562;-74
2023/01/30 05:00:23;;;;;;;51.55;34.83;;;;;;;3.22;100.00;101471.59;10439952;28;20029;-74
2023/01/30 05:05:24;;;;;;;50.53;30.65;;;;;;;3.29;100.00;101470.44;10443921;28;20045;-74
2023/01/30 05:10:25;;;;;;;49.00;30.58;;;;;;;3.33;100.00;101472.53;10439788;28;20044;-74
2023/01/30 05:15:25;;;;;;;53.80;31.50;;;;;;;3.43;100.00;101473.31;10444329;28;20549;-74
2023/01/30 05:20:26;;;;;;;50.72;28.52;;;;;;;3.52;100.00;101471.53;10455774;28;20115;-74
2023/01/30 05:25:26;;;;;;;33.17;23.70;;;;;;;3.67;100.00;101466.72;10465867;28;20059;-74
2023/01/30 05:30:27;;;;;;;41.65;23.95;;;;;;;3.87;100.00;101467.50;10437530;28;20037;-75
2023/01/30 05:35:28;;;;;;;37.30;24.25;;;;;;;4.00;100.00;101467.75;10481696;28;20045;-75
2023/01/30 05:40:28;;;;;;;35.42;23.45;;;;;;;4.07;100.00;101456.25;10461620;28;20047;-74
2023/01/30 05:45:29;;;;;;;39.97;23.92;;;;;;;4.14;100.00;101461.16;10441366;28;20505;-74
2023/01/30 05:50:29;;;;;;;33.10;22.02;;;;;;;4.19;100.00;101458.94;10441464;28;20173;-74
2023/01/30 05:55:30;;;;;;;34.83;24.45;;;;;;;4.22;100.00;101461.78;10461886;28;20052;-73
2023/01/30 06:00:30;;;;;;;50.63;26.08;;;;;;;4.21;100.00;101457.38;10479302;28;20124;-74
2023/01/30 06:05:31;;;;;;;38.88;23.33;;;;;;;4.25;100.00;101455.19;10474996;28;20048;-73
2023/01/30 06:10:31;;;;;;;41.63;26.67;;;;;;;4.25;100.00;101462.03;10477758;28;20040;-74
2023/01/30 06:15:32;;;;;;;36.17;21.77;;;;;;;4.21;100.00;101486.81;10477077;28;20082;-74
2023/01/30 06:20:32;;;;;;;37.20;25.65;;;;;;;4.22;100.00;101487.69;10474891;28;20119;-74
2023/01/30 06:25:33;;;;;;;35.97;25.83;;;;;;;4.26;100.00;101482.91;10474715;28;20046;-74
2023/01/30 06:30:33;;;;;;;44.08;25.80;;;;;;;4.29;100.00;101486.53;10478148;28;20035;-74
2023/01/30 06:35:38;;;;;;;38.05;23.42;;;;;;;4.33;100.00;101479.13;10481757;28;20098;-73
2023/01/30 06:40:39;;;;;;;43.75;26.48;;;;;;;4.35;100.00;101482.75;10478864;28;20167;-73
2023/01/30 06:45:40;;;;;;;41.63;27.77;;;;;;;4.32;100.00;101481.59;10495616;28;20028;-73
2023/01/30 06:50:40;;;;;;;43.63;30.17;;;;;;;4.34;100.00;101486.13;10464557;28;20040;-73
2023/01/30 06:55:41;;;;;;;45.47;30.35;;;;;;;4.37;100.00;101482.91;10479580;28;20128;-74
2023/01/30 07:00:42;;;;;;;50.13;28.42;;;;;;;4.35;100.00;101482.75;10479033;28;20186;-73
2023/01/30 07:05:43;;;;;;;48.58;29.42;;;;;;;4.33;100.00;101494.66;10465132;28;20060;-73
2023/01/30 07:10:44;;;;;;;43.53;27.20;;;;;;;4.34;100.00;101493.91;10481400;28;20028;-73
2023/01/30 07:15:45;;;;;;;53.00;27.17;;;;;;;4.40;100.00;101490.91;10479971;28;20347;-73
2023/01/30 07:20:47;;;;;;;30.03;17.73;;;;;;;4.43;100.00;101506.72;10489498;28;20119;-73
2023/01/30 07:25:47;;;;;;;39.20;23.08;;;;;;;4.42;100.00;101510.09;10487003;28;20440;-73
2023/01/30 07:30:51;;;;;;;37.28;22.10;;;;;;;4.30;100.00;101515.16;10492162;28;20049;-73
2023/01/30 07:35:52;;;;;;;35.58;20.67;;;;;;;4.13;100.00;101525.78;10466783;27;20032;-73
2023/01/30 07:40:52;;;;;;;33.08;18.65;;;;;;;3.97;100.00;101521.91;10433391;28;20044;-74
2023/01/30 07:45:53;;;;;;;31.90;18.25;;;;;;;3.96;100.00;101520.09;10442549;28;20072;-73
2023/01/30 07:50:55;;;;;;;30.15;16.35;;;;;;;3.82;100.00;101524.09;10442741;28;20033;-74
2023/01/30 07:55:56;;;;;;;24.73;15.38;;;;;;;3.71;100.00;101532.63;10429787;28;20067;-74
2023/01/30 08:00:56;;;;;;;28.30;15.65;;;;;;;3.66;100.00;101517.63;10443289;28;20044;-73
2023/01/30 08:05:57;;;;;;;27.05;13.18;;;;;;;3.74;100.00;101527.72;10441677;28;20060;-74
2023/01/30 08:10:58;;;;;;;25.17;9.57;;;;;;;3.70;100.00;101528.25;10440378;28;20041;-74
2023/01/30 08:15:59;;;;;;;24.25;11.70;;;;;;;3.69;100.00;101535.09;10440328;28;20094;-74
2023/01/30 08:21:01;;;;;;;42.65;15.65;;;;;;;3.76;100.00;101532.25;10443021;28;20459;-75
2023/01/30 08:26:02;;;;;;;25.30;10.65;;;;;;;3.85;100.00;101539.91;10443617;28;20064;-73
2023/01/30 08:31:07;;;;;;;18.25;8.20;;;;;;;3.81;100.00;101549.09;10444997;28;20444;-73
2023/01/30 08:36:08;;;;;;;18.15;6.93;;;;;;;3.86;100.00;101561.53;10451756;27;20049;-74
2023/01/30 08:41:08;;;;;;;21.65;7.03;;;;;;;3.93;100.00;101569.03;10438935;28;20516;-73
2023/01/30 08:46:09;;;;;;;29.98;6.63;;;;;;;3.99;100.00;101569.56;10435502;28;20048;-74
2023/01/30 08:51:10;;;;;;;14.95;5.18;;;;;;;4.13;100.00;101572.44;10436219;28;20144;-73
2023/01/30 08:56:10;;;;;;;12.70;6.28;;;;;;;4.25;100.00;101574.38;10467119;27;20045;-74
2023/01/30 09:01:11;;;;;;;21.48;6.18;;;;;;;4.36;100.00;101575.28;10467450;28;20147;-74
2023/01/30 09:06:12;;;;;;;18.55;5.82;;;;;;;4.50;100.00;101568.66;10440482;28;20135;-73
2023/01/30 09:11:12;;;;;;;23.23;6.97;;;;;;;4.64;100.00;101574.09;10434520;28;20065;-73
2023/01/30 09:16:13;;;;;;;12.13;3.45;;;;;;;4.88;100.00;101592.47;10434346;28;20512;-74
2023/01/30 09:21:13;;;;;;;14.90;5.72;;;;;;;5.16;100.00;101585.22;10467329;28;20052;-73
2023/01/30 09:26:14;;;;;;;14.75;4.68;;;;;;;5.40;100.00;101595.78;10482664;28;20044;-75
2023/01/30 09:31:14;;;;;;;17.30;5.43;;;;;;;5.64;100.00;101588.13;10466683;28;20431;-74
2023/01/30 09:36:15;;;;;;;15.85;6.07;;;;;;;5.84;100.00;101594.91;10448128;28;20123;-74
2023/01/30 09:41:28;;;;;;;15.70;5.85;;;;;;;5.98;100.00;101603.75;10478941;28;20119;-74
2023/01/30 09:46:59;;;;;;;15.27;4.43;;;;;;;6.17;100.00;101594.03;10480377;28;20412;-75
2023/01/30 09:52:23;;;;;;;17.35;6.63;;;;;;;6.45;100.00;101611.75;10481090;28;20116;-74
2023/01/30 09:57:24;;;;;;;17.48;5.43;;;;;;;6.59;100.00;101598.91;10424282;28;20040;-75
2023/01/30 10:02:46;;;;;;;17.55;5.90;;;;;;;7.04;100.00;101594.44;10404269;28;20692;-74
2023/01/30 10:08:17;;;;;;;16.05;4.53;;;;;;;8.82;100.00;101598.09;10439028;28;20045;-75
2023/01/30 10:13:23;;;;;;;15.48;7.40;;;;;;;9.90;100.00;101583.16;10470023;28;25388;-74
2023/01/30 10:19:00;;;;;;;12.10;5.07;;;;;;;10.68;100.00;101596.56;10482965;28;20060;-74
2023/01/30 10:24:30;;;;;;;14.93;5.95;;;;;;;8.76;100.00;101610.72;10502314;28;20377;-74
2023/01/30 10:29:37;;;;;;;18.42;8.55;;;;;;;7.38;100.00;101598.56;10449814;28;20064;-74
2023/01/30 10:34:51;;;;;;;11.40;3.83;;;;;;;6.78;100.00;101595.06;10480585;28;20380;-74
2023/01/30 10:40:42;;;;;;;9.73;4.30;;;;;;;6.33;100.00;101623.81;10480303;28;20055;-74
2023/01/30 10:46:01;;;;;;;19.95;6.18;;;;;;;6.20;100.00;101627.19;10406299;28;20049;-74
2023/01/30 10:51:03;;;;;;;21.20;5.63;;;;;;;6.01;100.00;101630.94;10475882;28;20127;-74
2023/01/30 10:56:28;;;;;;;15.95;4.97;;;;;;;5.99;100.00;101639.34;10457753;28;20102;-74
2023/01/30 11:01:37;;;;;;;14.23;4.25;;;;;;;5.93;100.00;101637.19;10473467;28;20037;-74
2023/01/30 11:06:37;;;;;;;11.88;4.20;;;;;;;5.94;100.00;101644.22;10429969;28;20119;-74
2023/01/30 11:11:47;;;;;;;16.00;5.68;;;;;;;5.97;100.00;101618.47;10446167;28;20120;-74
2023/01/30 11:16:52;;;;;;;12.57;4.35;;;;;;;6.02;100.00;101632.75;10482442;28;20386;-75
2023/01/30 11:21:54;;;;;;;18.45;7.05;;;;;;;5.91;100.00;101645.66;10468827;28;20033;-74
2023/01/30 11:26:55;;;;;;;16.00;3.90;;;;;;;6.02;100.00;101635.34;10433250;28;20037;-75
2023/01/30 11:32:00;;;;;;;11.43;3.43;;;;;;;5.97;100.00;101631.47;10434667;28;20518;-74
2023/01/30 11:37:21;;;;;;;12.13;5.20;;;;;;;5.94;100.00;101651.09;10443722;28;20040;-75
2023/01/30 11:42:28;;;;;;;12.63;5.97;;;;;;;5.85;100.00;101649.56;10425409;28;20040;-76
2023/01/30 11:47:29;;;;;;;15.10;3.42;;;;;;;5.91;100.00;101656.03;10497182;28;20055;-75
2023/01/30 11:52:31;;;;;;;14.95;4.88;;;;;;;5.98;100.00;101659.25;10446764;28;20033;-75
2023/01/30 11:57:44;;;;;;;16.60;4.72;;;;;;;5.93;100.00;101655.41;10424311;28;20037;-74
2023/01/30 12:02:46;;;;;;;12.50;3.92;;;;;;;5.93;100.00;101672.66;10468129;28;20545;-74
2023/01/30 12:07:47;;;;;;;;;;;;;;;5.98;100.00;101668.72;10519319;28;20112;-75
2023/01/30 12:12:50;;;;;;;16.80;4.97;;;;;;;6.14;100.00;101664.00;10520843;28;20415;-75
2023/01/30 12:18:12;;;;;;;12.35;5.28;;;;;;;6.30;100.00;101657.38;10453403;28;20045;-75
2023/01/30 12:23:13;;;;;;;13.05;4.43;;;;;;;6.29;100.00;101642.56;10519328;28;20037;-75
2023/01/30 12:28:45;;;;;;;23.60;5.57;;;;;;;6.28;100.00;101645.97;10519842;28;20504;-75
2023/01/30 12:33:46;;;;;;;15.18;4.07;;;;;;;6.28;100.00;101648.56;10469072;28;20056;-75
2023/01/30 12:39:03;;;;;;;12.70;6.00;;;;;;;6.29;100.00;101627.91;10470286;28;20033;-75
2023/01/30 12:44:32;;;;;;;15.50;5.05;;;;;;;6.67;100.00;101635.91;10482429;28;20040;-75
2023/01/30 12:49:53;;;;;;;13.30;3.80;;;;;;;7.07;100.00;101635.38;10484906;28;20098;-75
2023/01/30 12:55:01;;;;;;;17.87;4.17;;;;;;;7.30;100.00;101618.84;10485474;28;20045;-75
2023/01/30 13:00:23;;;;;;;18.40;5.53;;;;;;;7.63;100.00;101642.94;10482882;28;20097;-75
2023/01/30 13:05:33;;;;;;;16.42;5.18;;;;;;;7.59;100.00;101653.94;10513645;28;20044;-74
2023/01/30 13:10:45;;;;;;;17.80;4.90;;;;;;;7.66;100.00;101656.19;10492296;28;20033;-75
2023/01/30 13:16:10;;;;;;;16.25;4.75;;;;;;;7.42;100.00;101669.25;10466232;28;20416;-74
2023/01/30 13:21:40;;;;;;;15.45;4.47;;;;;;;7.01;100.00;101675.78;10465760;28;20043;-74
2023/01/30 13:26:41;;;;;;;13.50;6.25;;;;;;;6.73;100.00;101691.91;10457439;28;20129;-75
2023/01/30 13:31:56;;;;;;;10.30;4.15;;;;;;;6.57;100.00;101695.03;10502780;28;20048;-74
2023/01/30 13:37:06;;;;;;;13.07;4.65;;;;;;;6.29;100.00;101715.38;10472949;28;20120;-75
2023/01/30 13:42:25;;;;;;;18.92;3.72;;;;;;;6.22;100.00;101728.66;10480376;28;20090;-74
2023/01/30 13:47:47;;;;;;;18.90;5.38;;;;;;;6.35;100.00;101709.75;10483824;28;20036;-75
2023/01/30 13:53:03;;;;;;;12.15;4.22;;;;;;;6.72;100.00;101729.13;10470966;28;20037;-76
2023/01/30 13:58:29;;;;;;;13.98;4.63;;;;;;;6.74;100.00;101727.53;10516260;28;20124;-75
2023/01/30 14:03:31;;;;;;;12.63;4.75;;;;;;;6.90;100.00;101742.66;10483075;28;20037;-75
2023/01/30 14:08:38;;;;;;;19.02;4.43;;;;;;;6.87;100.00;101746.69;10510720;28;20085;-76
2023/01/30 14:13:39;;;;;;;24.95;5.15;;;;;;;6.69;100.00;101760.09;10483933;28;20033;-76
2023/01/30 14:18:41;;;;;;;13.40;4.55;;;;;;;6.50;100.00;101772.44;10466038;28;20040;-76
2023/01/30 14:23:52;;;;;;;12.95;4.97;;;;;;;6.39;100.00;101769.03;10483418;28;20382;-75
2023/01/30 14:28:54;;;;;;;22.50;6.63;;;;;;;6.28;100.00;101786.34;10480872;28;20040;-77
2023/01/30 14:33:54;;;;;;;19.15;5.93;;;;;;;6.17;100.00;101783.81;10481584;28;20052;-77
2023/01/30 14:39:36;;;;;;;26.85;5.25;;;;;;;6.08;100.00;101803.84;10481273;28;20543;-77
2023/01/30 14:44:56;;;;;;;17.83;5.28;;;;;;;6.05;100.00;101815.72;10466046;28;20045;-76
2023/01/30 14:49:57;;;;;;;14.13;4.95;;;;;;;6.07;100.00;101821.94;10496567;28;20055;-76
2023/01/30 14:54:58;;;;;;;17.63;4.83;;;;;;;6.03;100.00;101823.38;10480700;28;20037;-76
2023/01/30 15:00:18;;;;;;;14.82;3.70;;;;;;;5.96;100.00;101840.13;10508580;28;20056;-75
2023/01/30 15:05:31;;;;;;;16.08;4.63;;;;;;;5.87;100.00;101835.06;10506024;28;20092;-77
2023/01/30 15:10:37;;;;;;;18.73;5.82;;;;;;;5.92;100.00;101852.72;10506117;28;20127;-76
2023/01/30 15:16:05;;;;;;;14.27;5.63;;;;;;;5.80;100.00;101860.44;10482210;28;20032;-76
2023/01/30 15:21:36;;;;;;;15.10;5.38;;;;;;;5.68;100.00;101865.50;10482004;28;20078;-76
2023/01/30 15:26:40;;;;;;;14.95;6.25;;;;;;;5.48;100.00;101879.44;10429512;28;20036;-76
2023/01/30 15:31:52;;;;;;;18.83;5.82;;;;;;;5.31;100.00;101878.91;10441511;28;20071;-76
2023/01/30 15:36:53;;;;;;;14.52;5.15;;;;;;;5.25;100.00;101886.16;10415594;28;20049;-77
2023/01/30 15:41:58;;;;;;;11.00;3.22;;;;;;;5.37;100.00;101900.19;10457234;28;20410;-78
2023/01/30 15:47:08;;;;;;;19.83;5.88;;;;;;;5.46;100.00;101910.44;10469603;28;20553;-77
2023/01/30 15:52:13;;;;;;;16.67;5.70;;;;;;;5.46;100.00;101923.41;10488246;28;20388;-77
2023/01/30 15:57:19;;;;;;;17.60;10.88;;;;;;;5.47;100.00;101922.66;10472486;28;20090;-75
2023/01/30 16:02:32;;;;;;;17.08;6.18;;;;;;;5.39;100.00;101935.00;10471507;28;20036;-77
2023/01/30 16:07:33;;;;;;;10.85;5.25;;;;;;;5.46;100.00;101935.50;10487481;28;20054;-76
2023/01/30 16:12:39;;;;;;;19.17;4.75;;;;;;;5.41;100.00;101953.28;10485940;28;20249;-75
2023/01/30 16:17:40;;;;;;;11.82;4.53;;;;;;;5.37;100.00;101953.78;10520567;28;20123;-77
2023/01/30 16:22:42;;;;;;;28.90;6.97;;;;;;;5.29;100.00;101950.56;10414569;28;20037;-74
2023/01/30 16:27:47;;;;;;;23.92;5.57;;;;;;;5.24;100.00;101962.22;10444273;28;20037;-77
2023/01/30 16:32:47;;;;;;;19.98;5.30;;;;;;;5.11;100.00;101974.13;10429232;28;20558;-75
2023/01/30 16:37:48;;;;;;;22.92;7.97;;;;;;;5.10;100.00;101982.69;10497018;27;20068;-76
2023/01/30 16:42:58;;;;;;;23.17;6.60;;;;;;;5.16;100.00;101992.69;10468384;27;20056;-75
2023/01/30 16:48:23;;;;;;;20.77;5.85;;;;;;;5.16;100.00;101995.28;10469572;28;20048;-75
2023/01/30 16:53:23;;;;;;;30.48;7.88;;;;;;;5.17;100.00;102001.41;10442863;28;20036;-75
2023/01/30 16:58:27;;;;;;;18.48;6.30;;;;;;;5.14;100.00;102015.00;10464193;28;20449;-76
2023/01/30 17:03:30;;;;;;;14.90;4.78;;;;;;;5.19;100.00;102020.59;10476274;28;20033;-75
2023/01/30 17:08:47;;;;;;;15.00;4.15;;;;;;;5.06;100.00;102029.91;10460892;28;20048;-75
2023/01/30 17:13:47;;;;;;;16.52;4.47;;;;;;;4.78;100.00;102036.91;10437047;28;20516;-74
2023/01/30 17:18:52;;;;;;;21.63;6.30;;;;;;;4.34;100.00;102038.19;10439218;28;20041;-75
2023/01/30 17:23:58;;;;;;;16.30;5.10;;;;;;;4.15;100.00;102039.84;10481293;28;20033;-74
2023/01/30 17:28:58;;;;;;;29.50;11.85;;;;;;;4.06;100.00;102058.06;10483394;28;20503;-74
2023/01/30 17:33:59;;;;;;;15.95;4.40;;;;;;;3.80;100.00;102057.44;10481680;28;20036;-75
2023/01/30 17:38:59;;;;;;;13.45;5.47;;;;;;;3.74;100.00;102069.81;10479728;27;20128;-74
2023/01/30 17:44:00;;;;;;;20.10;7.68;;;;;;;3.56;100.00;102075.81;10473437;27;20052;-75
2023/01/30 17:49:00;;;;;;;20.02;4.90;;;;;;;3.54;100.00;102091.22;10467343;28;20131;-75
2023/01/30 17:54:01;;;;;;;12.85;4.38;;;;;;;3.44;100.00;102101.47;10478891;27;20058;-77
2023/01/30 17:59:05;;;;;;;17.35;9.32;;;;;;;3.34;100.00;102107.41;10480800;28;20412;-74
2023/01/30 18:04:05;;;;;;;19.27;5.45;;;;;;;3.47;100.00;102114.69;10496778;28;20504;-74
2023/01/30 18:09:06;;;;;;;23.55;7.07;;;;;;;3.81;100.00;102121.41;10462520;28;20093;-74
2023/01/30 18:14:07;;;;;;;24.98;4.70;;;;;;;4.07;100.00;102133.34;10478711;28;20459;-75
2023/01/30 18:19:10;;;;;;;16.40;7.97;;;;;;;3.98;100.00;102135.06;10482548;28;21762;-74
2023/01/30 18:24:11;;;;;;;20.13;6.53;;;;;;;4.16;100.00;102156.63;10465681;28;20036;-74
2023/01/30 18:29:12;;;;;;;20.47;5.30;;;;;;;4.18;100.00;102161.94;10463652;28;20036;-74
2023/01/30 18:34:12;;;;;;;20.50;6.93;;;;;;;4.18;100.00;102172.31;10480007;28;20271;-75
2023/01/30 18:39:13;;;;;;;19.20;4.72;;;;;;;4.28;100.00;102166.31;10482575;28;20029;-74
2023/01/30 18:44:14;;;;;;;15.35;5.07;;;;;;;4.39;100.00;102174.31;10481145;28;20142;-74
2023/01/30 18:49:14;;;;;;;17.17;6.22;;;;;;;4.42;100.00;102178.91;10487885;28;20040;-74
2023/01/30 18:54:15;;;;;;;18.65;6.55;;;;;;;4.33;100.00;102165.97;10468647;28;20126;-74
2023/01/30 18:59:15;;;;;;;13.43;3.47;;;;;;;4.19;100.00;102174.13;10443731;28;20041;-75
2023/01/30 19:04:16;;;;;;;10.55;3.25;;;;;;;3.97;100.00;102183.38;10458370;28;20057;-74
2023/01/30 19:09:17;;;;;;;15.73;4.57;;;;;;;3.91;100.00;102185.38;10475360;28;20063;-74
2023/01/30 19:14:18;;;;;;;11.63;3.55;;;;;;;3.70;100.00;102183.31;10471965;28;20048;-74
2023/01/30 19:19:18;;;;;;;10.48;5.47;;;;;;;3.25;100.00;102190.25;10452857;28;20056;-74
2023/01/30 19:24:19;;;;;;;359.58;209.02;;;;;;;2.78;100.00;102195.09;10495247;28;20047;-74
2023/01/30 19:29:28;;;;;;;35.60;17.70;;;;;;;2.33;100.00;102194.09;10488341;28;20044;-74
2023/01/30 19:34:32;;;;;;;48.00;30.83;;;;;;;1.94;100.00;102201.25;10488908;28;20442;-74
2023/01/30 19:39:50;;;;;;;21.85;9.23;;;;;;;1.84;100.00;102213.19;10487703;28;20032;-74
2023/01/30 19:44:51;;;;;;;23.95;6.53;;;;;;;1.69;100.00;102214.19;10485603;28;20052;-74
2023/01/30 19:49:54;;;;;;;30.73;8.70;;;;;;;1.72;100.00;102222.25;10486095;28;20047;-74
2023/01/30 19:54:55;;;;;;;20.60;6.85;;;;;;;1.73;100.00;102240.47;10491356;28;20044;-74
2023/01/30 19:59:55;;;;;;;24.17;7.70;;;;;;;1.75;100.00;102246.69;10483880;28;20130;-74
2023/01/30 20:04:57;;;;;;;23.73;8.38;;;;;;;1.75;100.00;102257.03;10480482;28;20033;-75
2023/01/30 20:09:57;;;;;;;25.48;9.23;;;;;;;1.71;100.00;102252.28;10478562;28;20086;-74
2023/01/30 20:14:58;;;;;;;30.10;9.55;;;;;;;1.75;100.00;102266.44;10489688;28;20044;-74
2023/01/30 20:19:59;;;;;;;36.78;8.98;;;;;;;1.73;100.00;102266.28;10492936;28;20043;-74
2023/01/30 20:24:59;;;;;;;29.95;9.68;;;;;;;1.69;100.00;102279.59;10480919;28;20047;-73
2023/01/30 20:30:00;;;;;;;26.23;10.10;;;;;;;1.74;100.00;102277.53;10485294;28;20056;-74
2023/01/30 20:35:00;;;;;;;31.13;8.73;;;;;;;1.70;100.00;102285.69;10462988;28;20048;-75
2023/01/30 20:40:01;;;;;;;43.42;9.45;;;;;;;1.64;100.00;102298.84;10497756;28;20043;-78
2023/01/30 20:45:03;;;;;;;23.42;7.80;;;;;;;1.68;100.00;102294.94;10482732;28;20060;-77
2023/01/30 20:50:04;;;;;;;30.15;11.13;;;;;;;1.85;100.00;102307.03;10509179;28;20036;-76
2023/01/30 20:55:05;;;;;;;35.08;10.50;;;;;;;2.25;100.00;102298.31;10512872;28;20036;-77
2023/01/30 21:00:06;;;;;;;22.67;7.95;;;;;;;2.52;100.00;102285.53;10459104;28;20055;-74
2023/01/30 21:05:07;;;;;;;24.37;8.40;;;;;;;2.71;100.00;102294.41;10472847;28;20045;-74
2023/01/30 21:10:09;;;;;;;20.77;6.88;;;;;;;2.82;100.00;102282.56;10475620;28;20044;-73
2023/01/30 21:15:09;;;;;;;30.65;7.78;;;;;;;2.89;100.00;102289.28;10476081;28;20048;-74
2023/01/30 21:20:10;;;;;;;20.50;7.05;;;;;;;2.82;100.00;102286.84;10477131;28;20036;-74
2023/01/30 21:25:11;;;;;;;39.13;11.60;;;;;;;2.66;100.00;102281.75;10491513;28;20052;-74
2023/01/30 21:30:12;;;;;;;29.00;9.63;;;;;;;2.32;100.00;102277.53;10474196;28;20055;-74
2023/01/30 21:35:18;;;;;;;22.43;8.53;;;;;;;1.97;100.00;102292.84;10457012;28;20025;-74
2023/01/30 21:45:38;;;;;;;25.27;9.60;;;;;;;1.28;100.00;102318.31;10475869;28;20480;-74
2023/01/30 21:50:38;;;;;;;30.92;12.00;;;;;;;1.17;100.00;102313.63;10432999;28;20097;-75
2023/01/30 21:55:39;;;;;;;22.45;9.43;;;;;;;1.12;100.00;102315.69;10442291;28;20656;-74
2023/01/30 22:00:43;;;;;;;34.88;10.63;;;;;;;0.98;100.00;102332.25;10452655;28;20400;-75
2023/01/30 22:05:44;;;;;;;32.72;8.80;;;;;;;0.97;100.00;102334.66;10461725;27;20036;-75
2023/01/30 22:10:45;;;;;;;22.70;9.37;;;;;;;0.90;100.00;102319.25;10424709;28;20402;-75
2023/01/30 22:15:45;;;;;;;17.85;7.97;;;;;;;0.78;100.00;102313.69;10452212;28;20082;-75
2023/01/30 22:20:46;;;;;;;27.25;8.10;;;;;;;0.73;100.00;102324.41;10478650;28;20047;-75
2023/01/30 22:31:18;;;;;;;30.98;10.32;;;;;;;0.54;100.00;102323.09;10460054;27;20049;-74
2023/01/30 22:36:19;;;;;;;42.40;9.57;;;;;;;0.62;100.00;102345.50;10476481;27;20049;-75
2023/01/30 22:41:21;;;;;;;29.40;8.57;;;;;;;0.65;100.00;102337.16;10475869;27;20345;-74
2023/01/30 22:46:26;;;;;;;36.50;7.80;;;;;;;0.62;100.00;102330.03;10482046;27;20446;-75
2023/01/30 22:51:30;;;;;;;27.88;8.40;;;;;;;0.60;100.00;102331.53;10474427;27;20054;-75
2023/01/30 22:56:40;;;;;;;31.02;7.93;;;;;;;0.60;100.00;102338.31;10508186;28;20048;-76
2023/01/30 23:01:43;;;;;;;27.10;8.32;;;;;;;0.56;100.00;102325.09;10481515;28;20492;-75
2023/01/30 23:06:44;;;;;;;29.83;6.85;;;;;;;0.50;100.00;102337.28;10440047;28;20063;-76
2023/01/30 23:22:28;;;;;;;25.50;6.90;;;;;;;0.45;100.00;102322.09;10481270;28;20110;-75
2023/01/30 23:27:28;;;;;;;23.95;6.43;;;;;;;0.49;100.00;102324.25;10509831;28;20458;-76